createdAt,value
2022-08-09T00:00:23.896Z,20.30
2022-08-09T00:06:19.654Z,20.40
2022-08-09T00:10:41.797Z,20.30
2022-08-09T00:15:59.111Z,20.30
2022-08-09T00:20:59.614Z,20.30
2022-08-09T00:25:57.908Z,20.30
2022-08-09T00:30:58.398Z,20.20
2022-08-09T00:35:58.818Z,20.20
2022-08-09T00:40:58.108Z,20.10
2022-08-09T00:45:57.986Z,20.10
2022-08-09T00:50:56.625Z,20.10
2022-08-09T00:56:05.226Z,20.00
2022-08-09T01:01:16.217Z,20.00
2022-08-09T01:06:22.021Z,19.90
2022-08-09T01:11:34.733Z,19.90
2022-08-09T01:16:47.503Z,19.90
2022-08-09T01:21:53.771Z,19.80
2022-08-09T01:27:01.822Z,19.70
2022-08-09T01:32:31.068Z,19.70
2022-08-09T01:38:05.713Z,19.60
2022-08-09T01:42:44.670Z,19.50
2022-08-09T01:47:44.720Z,19.50
2022-08-09T01:52:44.745Z,19.40
2022-08-09T01:57:52.910Z,19.40
2022-08-09T02:02:53.108Z,19.40
2022-08-09T02:08:40.051Z,19.30
2022-08-09T02:13:17.639Z,19.30
2022-08-09T02:18:24.444Z,19.20
2022-08-09T02:23:32.066Z,19.10
2022-08-09T02:28:44.127Z,19.10
2022-08-09T02:34:06.560Z,19.00
2022-08-09T02:39:07.430Z,19.00
2022-08-09T02:44:30.194Z,19.00
2022-08-09T02:49:38.788Z,18.90
2022-08-09T02:54:54.092Z,18.80
2022-08-09T03:00:21.407Z,18.80
2022-08-09T03:05:16.670Z,18.70
2022-08-09T03:10:16.598Z,18.70
2022-08-09T03:15:16.640Z,18.70
2022-08-09T03:20:16.359Z,18.60
2022-08-09T03:25:26.748Z,18.50
2022-08-09T03:30:36.662Z,18.50
2022-08-09T03:36:13.892Z,18.50
2022-08-09T03:40:54.187Z,18.50
2022-08-09T03:46:04.164Z,18.40
2022-08-09T03:51:54.123Z,18.40
2022-08-09T03:56:32.644Z,18.30
2022-08-09T04:01:35.342Z,18.30
2022-08-09T04:06:33.766Z,18.30
2022-08-09T04:11:48.667Z,18.20
2022-08-09T04:16:50.078Z,18.20
2022-08-09T04:21:48.262Z,18.10
2022-08-09T04:26:46.583Z,18.10
2022-08-09T04:31:47.384Z,18.10
2022-08-09T04:36:50.446Z,18.10
2022-08-09T04:41:48.740Z,18.00
2022-08-09T04:46:58.079Z,18.00
2022-08-09T04:52:00.072Z,18.00
2022-08-09T04:56:59.121Z,18.00
2022-08-09T05:01:57.322Z,18.10
2022-08-09T05:06:55.979Z,18.10
2022-08-09T05:11:57.675Z,18.10
2022-08-09T05:16:59.884Z,18.10
2022-08-09T05:21:58.081Z,18.20
2022-08-09T05:26:57.669Z,18.20
2022-08-09T05:32:00.130Z,18.30
2022-08-09T05:36:58.453Z,18.30
2022-08-09T05:42:04.561Z,18.40
2022-08-09T05:47:05.460Z,18.50
2022-08-09T05:52:04.509Z,18.50
2022-08-09T05:57:04.431Z,18.60
2022-08-09T06:02:04.732Z,18.80
2022-08-09T06:07:03.087Z,18.90
2022-08-09T06:12:01.444Z,19.00
2022-08-09T06:17:00.956Z,19.30
2022-08-09T06:22:15.220Z,19.60
2022-08-09T06:27:15.824Z,19.70
2022-08-09T06:32:53.311Z,19.80
2022-08-09T06:37:52.792Z,19.80
2022-08-09T06:42:51.978Z,20.00
2022-08-09T06:48:00.524Z,20.20
2022-08-09T06:53:00.798Z,20.20
2022-08-09T06:58:02.867Z,20.40
2022-08-09T07:03:06.150Z,20.60
2022-08-09T07:08:04.702Z,20.80
2022-08-09T07:13:18.698Z,20.90
2022-08-09T07:18:22.503Z,21.20
2022-08-09T07:23:20.838Z,21.40
2022-08-09T07:28:26.380Z,21.70
2022-08-09T07:33:27.881Z,21.80
2022-08-09T07:38:53.950Z,22.00
2022-08-09T07:43:56.786Z,22.20
2022-08-09T07:48:58.883Z,22.30
2022-08-09T07:54:07.515Z,22.60
2022-08-09T07:59:16.085Z,22.90
2022-08-09T08:04:32.135Z,23.10
2022-08-09T08:09:41.118Z,23.30
2022-08-09T08:14:44.327Z,23.50
2022-08-09T08:19:45.113Z,23.50
2022-08-09T08:24:49.025Z,23.90
2022-08-09T08:29:50.384Z,24.20
2022-08-09T08:34:52.137Z,24.40
2022-08-09T08:39:54.400Z,24.60
2022-08-09T08:44:57.392Z,24.90
2022-08-09T08:50:02.825Z,25.20
2022-08-09T08:55:04.094Z,25.40
2022-08-09T09:00:12.885Z,25.60
2022-08-09T09:05:26.247Z,25.80
2022-08-09T09:10:44.927Z,26.10
2022-08-09T09:15:49.193Z,26.40
2022-08-09T09:20:48.948Z,26.40
2022-08-09T09:26:03.556Z,26.50
2022-08-09T09:31:05.838Z,26.60
2022-08-09T09:36:20.333Z,26.30
2022-08-09T09:41:33.391Z,26.60
2022-08-09T09:46:42.621Z,26.90
2022-08-09T09:51:43.283Z,27.00
2022-08-09T09:58:00.168Z,26.90
2022-08-09T10:02:06.517Z,27.20
2022-08-09T10:07:24.046Z,27.50
2022-08-09T10:12:29.668Z,27.80
2022-08-09T10:17:50.681Z,28.20
2022-08-09T10:23:00.452Z,28.50
2022-08-09T10:27:59.050Z,28.50
2022-08-09T10:32:58.030Z,28.50
2022-08-09T10:38:01.273Z,28.90
2022-08-09T10:43:01.621Z,29.20
2022-08-09T10:48:26.074Z,29.40
2022-08-09T10:53:46.945Z,29.40
2022-08-09T10:58:54.097Z,29.40
2022-08-09T11:04:27.742Z,29.30
2022-08-09T11:09:52.572Z,29.50
2022-08-09T11:14:55.811Z,29.40
2022-08-09T11:20:10.080Z,29.20
2022-08-09T11:25:14.568Z,29.30
2022-08-09T11:30:32.509Z,29.50
2022-08-09T11:35:49.345Z,29.70
2022-08-09T11:40:52.975Z,29.90
2022-08-09T11:45:57.841Z,29.80
2022-08-09T11:52:49.983Z,29.90
2022-08-09T11:56:41.455Z,30.10
2022-08-09T12:08:34.577Z,30.50
2022-08-09T12:14:09.378Z,30.30
2022-08-09T12:18:55.362Z,30.20
2022-08-09T12:24:06.500Z,30.10
2022-08-09T12:29:29.483Z,29.90
2022-08-09T12:34:34.088Z,30.00
2022-08-09T12:39:32.477Z,30.30
2022-08-09T12:44:38.968Z,30.40
2022-08-09T12:49:40.507Z,30.50
2022-08-09T12:55:03.045Z,30.50
2022-08-09T13:00:25.188Z,30.60
2022-08-09T13:05:25.672Z,30.80
2022-08-09T13:10:23.887Z,30.90
2022-08-09T13:15:34.246Z,30.80
2022-08-09T13:20:37.969Z,30.80
2022-08-09T13:25:56.018Z,30.70
2022-08-09T13:32:15.468Z,30.60
2022-08-09T13:36:41.032Z,30.80
2022-08-09T13:41:57.273Z,30.80
2022-08-09T13:47:25.551Z,30.90
2022-08-09T13:52:19.113Z,31.10
2022-08-09T13:57:35.346Z,31.40
2022-08-09T14:02:42.469Z,31.60
2022-08-09T14:08:01.445Z,31.60
2022-08-09T14:13:01.870Z,31.50
2022-08-09T14:18:16.724Z,31.30
2022-08-09T14:23:20.258Z,31.10
2022-08-09T14:28:36.683Z,30.70
2022-08-09T14:33:38.366Z,30.50
2022-08-09T14:38:36.813Z,30.60
2022-08-09T14:43:47.079Z,30.50
2022-08-09T14:48:52.672Z,30.40
2022-08-09T14:53:52.510Z,30.40
2022-08-09T14:58:51.018Z,30.40
2022-08-09T15:03:55.924Z,30.30
2022-08-09T15:08:56.600Z,29.90
2022-08-09T15:14:04.389Z,29.90
2022-08-09T15:19:16.131Z,29.80
2022-08-09T15:24:24.194Z,29.70
2022-08-09T15:30:48.535Z,29.70
2022-08-09T15:34:45.233Z,29.50
2022-08-09T15:39:53.157Z,29.40
2022-08-09T15:44:52.203Z,29.50
2022-08-09T15:50:03.915Z,29.40
2022-08-09T15:55:02.959Z,29.20
2022-08-09T16:00:01.160Z,29.00
2022-08-09T16:05:04.048Z,28.70
2022-08-09T16:10:05.146Z,28.50
2022-08-09T16:15:04.907Z,28.30
2022-08-09T16:20:30.296Z,28.30
2022-08-09T16:25:37.058Z,28.20
2022-08-09T16:30:38.589Z,28.30
2022-08-09T16:35:56.148Z,28.20
2022-08-09T16:40:58.193Z,28.20
2022-08-09T16:45:56.745Z,28.00
2022-08-09T16:50:59.770Z,27.90
2022-08-09T16:56:10.306Z,27.80
2022-08-09T17:01:09.180Z,27.70
2022-08-09T17:06:31.319Z,27.80
2022-08-09T17:11:41.278Z,27.70
2022-08-09T17:16:40.253Z,27.60
2022-08-09T17:21:39.802Z,27.60
2022-08-09T17:26:38.617Z,27.70
2022-08-09T17:31:38.975Z,27.80
2022-08-09T17:36:40.063Z,27.80
2022-08-09T17:41:51.411Z,27.70
2022-08-09T17:46:55.583Z,27.50
2022-08-09T17:51:57.485Z,27.30
2022-08-09T17:56:56.343Z,27.10
2022-08-09T18:02:07.669Z,27.10
2022-08-09T18:07:23.193Z,26.90
2022-08-09T18:12:21.908Z,26.70
2022-08-09T18:18:01.929Z,26.60
2022-08-09T18:22:59.814Z,26.60
2022-08-09T18:28:19.020Z,26.50
2022-08-09T18:33:23.267Z,26.30
2022-08-09T18:38:22.902Z,26.20
2022-08-09T18:43:25.785Z,25.90
2022-08-09T18:48:25.518Z,25.80
2022-08-09T18:53:43.417Z,25.70
2022-08-09T18:58:55.378Z,25.70
2022-08-09T19:04:06.068Z,25.40
2022-08-09T19:09:09.038Z,25.30
2022-08-09T19:14:29.148Z,25.10
2022-08-09T19:19:28.395Z,25.00
2022-08-09T19:25:11.598Z,24.80
2022-08-09T19:30:23.041Z,24.60
2022-08-09T19:35:18.005Z,24.60
2022-08-09T19:40:19.361Z,24.50
2022-08-09T19:45:18.564Z,24.40
2022-08-09T19:50:51.006Z,24.30
2022-08-09T19:56:02.955Z,24.20
2022-08-09T20:00:55.028Z,24.00
2022-08-09T20:05:53.461Z,23.90
2022-08-09T20:10:53.305Z,23.80
2022-08-09T20:16:38.492Z,23.90
2022-08-09T20:21:09.793Z,23.80
2022-08-09T20:26:13.210Z,23.70
2022-08-09T20:31:13.865Z,23.50
2022-08-09T20:36:14.015Z,23.20
2022-08-09T20:41:13.620Z,23.20
2022-08-09T20:46:33.556Z,23.20
2022-08-09T20:51:30.079Z,23.20
2022-08-09T20:56:41.065Z,23.00
2022-08-09T21:01:51.433Z,22.90
2022-08-09T21:06:51.706Z,22.80
2022-08-09T21:18:23.906Z,22.80
2022-08-09T21:22:38.009Z,22.70
2022-08-09T21:27:52.427Z,22.70
2022-08-09T21:32:51.839Z,22.60
2022-08-09T21:37:59.405Z,22.50
2022-08-09T21:43:00.716Z,22.30
2022-08-09T21:47:59.389Z,22.20
2022-08-09T21:52:57.675Z,22.00
2022-08-09T21:57:58.942Z,22.00
2022-08-09T22:03:01.057Z,22.00
2022-08-09T22:07:59.338Z,22.10
2022-08-09T22:12:59.686Z,22.20
2022-08-09T22:18:12.175Z,22.20
2022-08-09T22:23:13.461Z,22.20
2022-08-09T22:28:12.536Z,22.10
2022-08-09T22:33:12.090Z,22.00
2022-08-09T22:38:15.508Z,21.90
2022-08-09T22:43:16.243Z,21.90
2022-08-09T22:48:35.919Z,21.90
2022-08-09T22:53:58.101Z,21.80
2022-08-09T22:58:53.112Z,21.80
2022-08-09T23:04:06.000Z,21.80
2022-08-09T23:09:07.153Z,21.60
2022-08-09T23:14:10.273Z,21.50
2022-08-09T23:19:17.142Z,21.60
2022-08-09T23:24:15.287Z,21.50
2022-08-09T23:29:13.882Z,21.50
2022-08-09T23:34:12.426Z,21.50
2022-08-09T23:39:13.700Z,21.40
2022-08-09T23:44:11.919Z,21.40
2022-08-09T23:49:11.403Z,21.20
2022-08-09T23:54:09.729Z,21.20
2022-08-09T23:59:09.304Z,21.20
